sensor_id;sensor_type;location;lat;lon;timestamp;P1;durP1;ratioP1;P2;durP2;ratioP2
65572;SDS011;52214;50.940;13.996;2022-09-02T00:00:35;4.90;;;3.03;;
65572;SDS011;52214;50.940;13.996;2022-09-02T00:03:20;5.30;;;3.17;;
65572;SDS011;52214;50.940;13.996;2022-09-02T00:06:04;5.57;;;3.05;;
65572;SDS011;52214;50.940;13.996;2022-09-02T00:08:48;6.28;;;2.90;;
65572;SDS011;52214;50.940;13.996;2022-09-02T00:11:32;6.30;;;2.83;;
65572;SDS011;52214;50.940;13.996;2022-09-02T00:14:21;7.03;;;3.20;;
65572;SDS011;52214;50.940;13.996;2022-09-02T00:17:05;6.47;;;2.92;;
65572;SDS011;52214;50.940;13.996;2022-09-02T00:19:49;7.47;;;3.20;;
65572;SDS011;52214;50.940;13.996;2022-09-02T00:22:33;6.15;;;3.28;;
65572;SDS011;52214;50.940;13.996;2022-09-02T00:25:17;6.07;;;3.00;;
65572;SDS011;52214;50.940;13.996;2022-09-02T00:28:02;7.95;;;3.10;;
65572;SDS011;52214;50.940;13.996;2022-09-02T00:30:46;4.95;;;3.00;;
65572;SDS011;52214;50.940;13.996;2022-09-02T00:33:30;6.10;;;3.40;;
65572;SDS011;52214;50.940;13.996;2022-09-02T00:36:16;7.15;;;3.33;;
65572;SDS011;52214;50.940;13.996;2022-09-02T00:39:00;5.10;;;3.00;;
65572;SDS011;52214;50.940;13.996;2022-09-02T00:41:44;7.38;;;3.50;;
65572;SDS011;52214;50.940;13.996;2022-09-02T00:44:29;5.90;;;2.92;;
65572;SDS011;52214;50.940;13.996;2022-09-02T00:47:14;5.22;;;2.90;;
65572;SDS011;52214;50.940;13.996;2022-09-02T00:49:58;5.90;;;2.95;;
65572;SDS011;52214;50.940;13.996;2022-09-02T00:52:43;5.97;;;3.20;;
65572;SDS011;52214;50.940;13.996;2022-09-02T00:55:30;5.43;;;2.80;;
65572;SDS011;52214;50.940;13.996;2022-09-02T00:58:15;5.60;;;3.00;;
65572;SDS011;52214;50.940;13.996;2022-09-02T01:01:00;4.53;;;2.92;;
65572;SDS011;52214;50.940;13.996;2022-09-02T01:03:46;5.78;;;3.08;;
65572;SDS011;52214;50.940;13.996;2022-09-02T01:06:31;5.70;;;3.07;;
65572;SDS011;52214;50.940;13.996;2022-09-02T01:09:16;5.47;;;3.03;;
65572;SDS011;52214;50.940;13.996;2022-09-02T01:12:00;5.47;;;3.10;;
65572;SDS011;52214;50.940;13.996;2022-09-02T01:14:44;5.63;;;2.65;;
65572;SDS011;52214;50.940;13.996;2022-09-02T01:17:28;5.28;;;2.80;;
65572;SDS011;52214;50.940;13.996;2022-09-02T01:20:14;5.23;;;3.00;;
65572;SDS011;52214;50.940;13.996;2022-09-02T01:22:58;4.50;;;2.90;;
65572;SDS011;52214;50.940;13.996;2022-09-02T01:25:42;6.40;;;2.80;;
65572;SDS011;52214;50.940;13.996;2022-09-02T01:28:26;4.75;;;2.70;;
65572;SDS011;52214;50.940;13.996;2022-09-02T01:31:11;5.75;;;2.90;;
65572;SDS011;52214;50.940;13.996;2022-09-02T01:33:55;5.63;;;2.90;;
65572;SDS011;52214;50.940;13.996;2022-09-02T01:36:39;4.65;;;2.80;;
65572;SDS011;52214;50.940;13.996;2022-09-02T01:39:23;6.78;;;2.83;;
65572;SDS011;52214;50.940;13.996;2022-09-02T01:42:07;4.60;;;2.75;;
65572;SDS011;52214;50.940;13.996;2022-09-02T01:44:52;5.32;;;3.05;;
65572;SDS011;52214;50.940;13.996;2022-09-02T01:47:36;5.87;;;3.30;;
65572;SDS011;52214;50.940;13.996;2022-09-02T01:50:20;5.35;;;3.35;;
65572;SDS011;52214;50.940;13.996;2022-09-02T01:53:04;6.30;;;3.10;;
65572;SDS011;52214;50.940;13.996;2022-09-02T01:55:49;6.43;;;3.50;;
65572;SDS011;52214;50.940;13.996;2022-09-02T01:58:33;7.25;;;3.85;;
65572;SDS011;52214;50.940;13.996;2022-09-02T02:01:17;5.80;;;3.53;;
65572;SDS011;52214;50.940;13.996;2022-09-02T02:04:01;8.02;;;3.65;;
65572;SDS011;52214;50.940;13.996;2022-09-02T02:06:49;5.63;;;3.78;;
65572;SDS011;52214;50.940;13.996;2022-09-02T02:09:33;6.03;;;3.28;;
65572;SDS011;52214;50.940;13.996;2022-09-02T02:12:17;5.63;;;3.33;;
65572;SDS011;52214;50.940;13.996;2022-09-02T02:15:03;7.03;;;3.53;;
65572;SDS011;52214;50.940;13.996;2022-09-02T02:17:48;6.50;;;3.65;;
65572;SDS011;52214;50.940;13.996;2022-09-02T02:20:32;5.95;;;4.03;;
65572;SDS011;52214;50.940;13.996;2022-09-02T02:23:16;6.65;;;3.58;;
65572;SDS011;52214;50.940;13.996;2022-09-02T02:26:00;6.43;;;3.45;;
65572;SDS011;52214;50.940;13.996;2022-09-02T02:28:44;6.50;;;3.73;;
65572;SDS011;52214;50.940;13.996;2022-09-02T02:31:27;5.68;;;3.60;;
65572;SDS011;52214;50.940;13.996;2022-09-02T02:34:12;7.07;;;3.63;;
65572;SDS011;52214;50.940;13.996;2022-09-02T02:36:56;5.70;;;3.25;;
65572;SDS011;52214;50.940;13.996;2022-09-02T02:39:40;8.25;;;3.50;;
65572;SDS011;52214;50.940;13.996;2022-09-02T02:42:25;6.00;;;3.17;;
65572;SDS011;52214;50.940;13.996;2022-09-02T02:45:09;5.28;;;3.25;;
65572;SDS011;52214;50.940;13.996;2022-09-02T02:47:53;6.90;;;3.22;;
65572;SDS011;52214;50.940;13.996;2022-09-02T02:50:38;5.50;;;2.90;;
65572;SDS011;52214;50.940;13.996;2022-09-02T02:53:22;5.30;;;3.15;;
65572;SDS011;52214;50.940;13.996;2022-09-02T02:56:06;7.20;;;3.33;;
65572;SDS011;52214;50.940;13.996;2022-09-02T02:58:50;5.57;;;3.13;;
65572;SDS011;52214;50.940;13.996;2022-09-02T03:01:34;5.43;;;3.10;;
65572;SDS011;52214;50.940;13.996;2022-09-02T03:04:18;5.63;;;3.35;;
65572;SDS011;52214;50.940;13.996;2022-09-02T03:07:04;6.32;;;3.28;;
65572;SDS011;52214;50.940;13.996;2022-09-02T03:09:48;5.73;;;3.33;;
65572;SDS011;52214;50.940;13.996;2022-09-02T03:12:35;5.55;;;3.05;;
65572;SDS011;52214;50.940;13.996;2022-09-02T03:15:19;5.53;;;3.10;;
65572;SDS011;52214;50.940;13.996;2022-09-02T03:18:04;4.65;;;2.90;;
65572;SDS011;52214;50.940;13.996;2022-09-02T03:20:48;5.55;;;2.95;;
65572;SDS011;52214;50.940;13.996;2022-09-02T03:23:33;8.00;;;3.33;;
65572;SDS011;52214;50.940;13.996;2022-09-02T03:26:18;5.72;;;3.40;;
65572;SDS011;52214;50.940;13.996;2022-09-02T03:29:03;7.13;;;3.95;;
65572;SDS011;52214;50.940;13.996;2022-09-02T03:31:47;5.75;;;3.50;;
65572;SDS011;52214;50.940;13.996;2022-09-02T03:34:32;7.25;;;4.00;;
65572;SDS011;52214;50.940;13.996;2022-09-02T03:37:17;6.40;;;3.40;;
65572;SDS011;52214;50.940;13.996;2022-09-02T03:40:05;7.72;;;3.35;;
65572;SDS011;52214;50.940;13.996;2022-09-02T03:42:50;6.32;;;3.10;;
65572;SDS011;52214;50.940;13.996;2022-09-02T03:45:34;6.68;;;2.97;;
65572;SDS011;52214;50.940;13.996;2022-09-02T03:48:18;7.25;;;3.30;;
65572;SDS011;52214;50.940;13.996;2022-09-02T03:51:02;5.53;;;2.87;;
65572;SDS011;52214;50.940;13.996;2022-09-02T03:53:46;6.28;;;3.05;;
65572;SDS011;52214;50.940;13.996;2022-09-02T03:56:32;5.30;;;3.25;;
65572;SDS011;52214;50.940;13.996;2022-09-02T03:59:16;6.47;;;3.25;;
65572;SDS011;52214;50.940;13.996;2022-09-02T04:02:00;6.38;;;3.22;;
65572;SDS011;52214;50.940;13.996;2022-09-02T04:04:44;8.00;;;3.10;;
65572;SDS011;52214;50.940;13.996;2022-09-02T04:07:28;5.55;;;3.08;;
65572;SDS011;52214;50.940;13.996;2022-09-02T04:10:14;6.50;;;3.22;;
65572;SDS011;52214;50.940;13.996;2022-09-02T04:12:58;5.20;;;3.25;;
65572;SDS011;52214;50.940;13.996;2022-09-02T04:15:42;7.38;;;3.50;;
65572;SDS011;52214;50.940;13.996;2022-09-02T04:18:28;5.50;;;2.97;;
65572;SDS011;52214;50.940;13.996;2022-09-02T04:21:12;5.55;;;3.20;;
65572;SDS011;52214;50.940;13.996;2022-09-02T04:23:56;5.43;;;3.20;;
65572;SDS011;52214;50.940;13.996;2022-09-02T04:26:40;7.47;;;3.13;;
65572;SDS011;52214;50.940;13.996;2022-09-02T04:29:25;5.53;;;3.53;;
65572;SDS011;52214;50.940;13.996;2022-09-02T04:32:08;7.83;;;3.30;;
65572;SDS011;52214;50.940;13.996;2022-09-02T04:34:53;5.65;;;3.50;;
65572;SDS011;52214;50.940;13.996;2022-09-02T04:37:36;5.72;;;3.15;;
65572;SDS011;52214;50.940;13.996;2022-09-02T04:40:20;5.25;;;3.00;;
65572;SDS011;52214;50.940;13.996;2022-09-02T04:43:05;5.18;;;3.10;;
65572;SDS011;52214;50.940;13.996;2022-09-02T04:45:49;5.50;;;2.83;;
65572;SDS011;52214;50.940;13.996;2022-09-02T04:48:34;7.75;;;3.00;;
65572;SDS011;52214;50.940;13.996;2022-09-02T04:51:20;5.82;;;3.20;;
65572;SDS011;52214;50.940;13.996;2022-09-02T04:54:05;5.20;;;2.72;;
65572;SDS011;52214;50.940;13.996;2022-09-02T04:56:49;4.43;;;2.60;;
65572;SDS011;52214;50.940;13.996;2022-09-02T04:59:33;5.83;;;2.90;;
65572;SDS011;52214;50.940;13.996;2022-09-02T05:02:17;5.20;;;2.67;;
65572;SDS011;52214;50.940;13.996;2022-09-02T05:05:02;5.30;;;2.80;;
65572;SDS011;52214;50.940;13.996;2022-09-02T05:07:46;5.65;;;2.88;;
65572;SDS011;52214;50.940;13.996;2022-09-02T05:10:31;4.43;;;2.40;;
65572;SDS011;52214;50.940;13.996;2022-09-02T05:13:17;6.83;;;2.53;;
65572;SDS011;52214;50.940;13.996;2022-09-02T05:16:01;4.88;;;2.33;;
65572;SDS011;52214;50.940;13.996;2022-09-02T05:18:46;4.95;;;2.80;;
65572;SDS011;52214;50.940;13.996;2022-09-02T05:21:30;4.90;;;2.45;;
65572;SDS011;52214;50.940;13.996;2022-09-02T05:24:14;4.43;;;2.60;;
65572;SDS011;52214;50.940;13.996;2022-09-02T05:26:58;4.97;;;2.70;;
65572;SDS011;52214;50.940;13.996;2022-09-02T05:29:42;4.50;;;2.28;;
65572;SDS011;52214;50.940;13.996;2022-09-02T05:32:27;5.95;;;2.72;;
65572;SDS011;52214;50.940;13.996;2022-09-02T05:35:11;4.95;;;2.63;;
65572;SDS011;52214;50.940;13.996;2022-09-02T05:37:55;5.07;;;2.47;;
65572;SDS011;52214;50.940;13.996;2022-09-02T05:40:39;5.20;;;2.70;;
65572;SDS011;52214;50.940;13.996;2022-09-02T05:43:31;4.60;;;2.55;;
65572;SDS011;52214;50.940;13.996;2022-09-02T05:46:16;4.65;;;2.58;;
65572;SDS011;52214;50.940;13.996;2022-09-02T05:49:02;6.07;;;2.65;;
65572;SDS011;52214;50.940;13.996;2022-09-02T05:51:48;5.38;;;2.95;;
65572;SDS011;52214;50.940;13.996;2022-09-02T05:54:35;5.30;;;3.07;;
65572;SDS011;52214;50.940;13.996;2022-09-02T05:57:20;5.32;;;3.10;;
65572;SDS011;52214;50.940;13.996;2022-09-02T06:00:04;5.50;;;3.20;;
65572;SDS011;52214;50.940;13.996;2022-09-02T06:02:48;6.35;;;2.88;;
65572;SDS011;52214;50.940;13.996;2022-09-02T06:05:32;5.10;;;3.20;;
65572;SDS011;52214;50.940;13.996;2022-09-02T06:08:16;5.50;;;2.83;;
65572;SDS011;52214;50.940;13.996;2022-09-02T06:11:00;5.35;;;2.70;;
65572;SDS011;52214;50.940;13.996;2022-09-02T06:13:44;5.28;;;2.88;;
65572;SDS011;52214;50.940;13.996;2022-09-02T06:16:29;5.30;;;3.10;;
65572;SDS011;52214;50.940;13.996;2022-09-02T06:19:15;7.13;;;3.00;;
65572;SDS011;52214;50.940;13.996;2022-09-02T06:21:59;5.57;;;3.30;;
65572;SDS011;52214;50.940;13.996;2022-09-02T06:24:44;6.32;;;3.55;;
65572;SDS011;52214;50.940;13.996;2022-09-02T06:27:28;5.75;;;3.30;;
65572;SDS011;52214;50.940;13.996;2022-09-02T06:30:12;5.63;;;3.30;;
65572;SDS011;52214;50.940;13.996;2022-09-02T06:32:56;5.30;;;3.38;;
65572;SDS011;52214;50.940;13.996;2022-09-02T06:35:41;5.57;;;3.10;;
65572;SDS011;52214;50.940;13.996;2022-09-02T06:38:26;7.93;;;3.40;;
65572;SDS011;52214;50.940;13.996;2022-09-02T06:41:10;5.68;;;3.10;;
65572;SDS011;52214;50.940;13.996;2022-09-02T06:43:56;6.72;;;3.35;;
65572;SDS011;52214;50.940;13.996;2022-09-02T06:46:43;6.57;;;3.53;;
65572;SDS011;52214;50.940;13.996;2022-09-02T06:49:28;7.80;;;3.43;;
65572;SDS011;52214;50.940;13.996;2022-09-02T06:52:12;5.72;;;3.13;;
65572;SDS011;52214;50.940;13.996;2022-09-02T06:54:57;6.88;;;3.58;;
65572;SDS011;52214;50.940;13.996;2022-09-02T06:57:42;6.22;;;2.92;;
65572;SDS011;52214;50.940;13.996;2022-09-02T07:00:25;7.00;;;3.40;;
65572;SDS011;52214;50.940;13.996;2022-09-02T07:03:10;4.40;;;2.43;;
65572;SDS011;52214;50.940;13.996;2022-09-02T07:06:13;4.93;;;2.70;;
65572;SDS011;52214;50.940;13.996;2022-09-02T07:09:02;5.13;;;2.60;;
65572;SDS011;52214;50.940;13.996;2022-09-02T07:11:46;5.13;;;2.45;;
65572;SDS011;52214;50.940;13.996;2022-09-02T07:14:39;4.88;;;2.70;;
65572;SDS011;52214;50.940;13.996;2022-09-02T07:17:24;4.67;;;2.40;;
65572;SDS011;52214;50.940;13.996;2022-09-02T07:20:09;4.05;;;2.05;;
65572;SDS011;52214;50.940;13.996;2022-09-02T07:22:53;4.40;;;2.38;;
65572;SDS011;52214;50.940;13.996;2022-09-02T07:25:37;4.25;;;2.10;;
65572;SDS011;52214;50.940;13.996;2022-09-02T07:28:22;3.88;;;2.15;;
65572;SDS011;52214;50.940;13.996;2022-09-02T07:31:10;4.77;;;2.00;;
65572;SDS011;52214;50.940;13.996;2022-09-02T07:33:55;3.80;;;2.00;;
65572;SDS011;52214;50.940;13.996;2022-09-02T07:36:39;4.15;;;1.70;;
65572;SDS011;52214;50.940;13.996;2022-09-02T07:39:24;5.40;;;1.98;;
65572;SDS011;52214;50.940;13.996;2022-09-02T07:42:09;3.30;;;1.50;;
65572;SDS011;52214;50.940;13.996;2022-09-02T07:44:53;3.53;;;1.57;;
65572;SDS011;52214;50.940;13.996;2022-09-02T07:47:37;4.38;;;1.38;;
65572;SDS011;52214;50.940;13.996;2022-09-02T07:50:21;4.07;;;1.30;;
65572;SDS011;52214;50.940;13.996;2022-09-02T07:53:06;3.20;;;1.30;;
65572;SDS011;52214;50.940;13.996;2022-09-02T07:55:50;3.50;;;1.35;;
65572;SDS011;52214;50.940;13.996;2022-09-02T07:58:34;3.40;;;1.30;;
65572;SDS011;52214;50.940;13.996;2022-09-02T08:01:19;3.05;;;1.00;;
65572;SDS011;52214;50.940;13.996;2022-09-02T08:04:03;3.17;;;1.10;;
65572;SDS011;52214;50.940;13.996;2022-09-02T08:06:49;2.83;;;1.00;;
65572;SDS011;52214;50.940;13.996;2022-09-02T08:09:32;4.28;;;1.10;;
65572;SDS011;52214;50.940;13.996;2022-09-02T08:12:17;3.27;;;1.20;;
65572;SDS011;52214;50.940;13.996;2022-09-02T08:15:02;2.25;;;0.80;;
65572;SDS011;52214;50.940;13.996;2022-09-02T08:17:47;2.95;;;1.05;;
65572;SDS011;52214;50.940;13.996;2022-09-02T08:20:31;2.80;;;0.90;;
65572;SDS011;52214;50.940;13.996;2022-09-02T08:23:15;4.07;;;0.90;;
65572;SDS011;52214;50.940;13.996;2022-09-02T08:25:59;2.53;;;1.00;;
65572;SDS011;52214;50.940;13.996;2022-09-02T08:28:44;2.28;;;0.82;;
65572;SDS011;52214;50.940;13.996;2022-09-02T08:31:28;2.63;;;0.85;;
65572;SDS011;52214;50.940;13.996;2022-09-02T08:34:12;2.78;;;0.90;;
65572;SDS011;52214;50.940;13.996;2022-09-02T08:36:56;2.95;;;0.90;;
65572;SDS011;52214;50.940;13.996;2022-09-02T08:39:43;2.90;;;0.87;;
65572;SDS011;52214;50.940;13.996;2022-09-02T08:42:31;2.65;;;0.80;;
65572;SDS011;52214;50.940;13.996;2022-09-02T08:48:18;2.72;;;0.90;;
65572;SDS011;52214;50.940;13.996;2022-09-02T08:51:05;3.25;;;0.80;;
65572;SDS011;52214;50.940;13.996;2022-09-02T08:53:56;2.70;;;0.90;;
65572;SDS011;52214;50.940;13.996;2022-09-02T08:56:40;2.67;;;0.95;;
65572;SDS011;52214;50.940;13.996;2022-09-02T08:59:25;3.25;;;0.80;;
65572;SDS011;52214;50.940;13.996;2022-09-02T09:02:19;2.72;;;0.73;;
65572;SDS011;52214;50.940;13.996;2022-09-02T09:05:48;3.17;;;0.90;;
65572;SDS011;52214;50.940;13.996;2022-09-02T09:11:02;2.47;;;0.80;;
65572;SDS011;52214;50.940;13.996;2022-09-02T09:20:47;2.47;;;0.73;;
65572;SDS011;52214;50.940;13.996;2022-09-02T09:23:24;2.07;;;0.60;;
65572;SDS011;52214;50.940;13.996;2022-09-02T09:25:55;3.75;;;0.70;;
65572;SDS011;52214;50.940;13.996;2022-09-02T09:28:29;2.38;;;0.68;;
65572;SDS011;52214;50.940;13.996;2022-09-02T09:30:55;1.83;;;0.52;;
65572;SDS011;52214;50.940;13.996;2022-09-02T09:33:24;2.30;;;0.70;;
65572;SDS011;52214;50.940;13.996;2022-09-02T09:35:53;3.23;;;0.80;;
65572;SDS011;52214;50.940;13.996;2022-09-02T09:38:29;1.92;;;0.60;;
65572;SDS011;52214;50.940;13.996;2022-09-02T09:41:09;2.40;;;0.70;;
65572;SDS011;52214;50.940;13.996;2022-09-02T09:43:38;2.50;;;0.70;;
65572;SDS011;52214;50.940;13.996;2022-09-02T09:46:37;2.65;;;0.80;;
65572;SDS011;52214;50.940;13.996;2022-09-02T09:48:58;2.40;;;0.65;;
65572;SDS011;52214;50.940;13.996;2022-09-02T09:51:24;2.30;;;0.63;;
65572;SDS011;52214;50.940;13.996;2022-09-02T09:53:50;1.90;;;0.60;;
65572;SDS011;52214;50.940;13.996;2022-09-02T09:58:44;2.40;;;0.75;;
65572;SDS011;52214;50.940;13.996;2022-09-02T10:01:11;2.40;;;0.70;;
65572;SDS011;52214;50.940;13.996;2022-09-02T10:08:57;2.60;;;0.80;;
65572;SDS011;52214;50.940;13.996;2022-09-02T10:11:53;2.28;;;0.70;;
65572;SDS011;52214;50.940;13.996;2022-09-02T10:14:24;1.58;;;0.50;;
65572;SDS011;52214;50.940;13.996;2022-09-02T10:16:59;2.30;;;0.70;;
65572;SDS011;52214;50.940;13.996;2022-09-02T10:27:38;2.10;;;0.60;;
65572;SDS011;52214;50.940;13.996;2022-09-02T10:30:16;2.65;;;0.70;;
65572;SDS011;52214;50.940;13.996;2022-09-02T10:38:47;2.20;;;0.60;;
65572;SDS011;52214;50.940;13.996;2022-09-02T10:46:31;2.20;;;0.68;;
65572;SDS011;52214;50.940;13.996;2022-09-02T10:49:14;3.13;;;0.70;;
65572;SDS011;52214;50.940;13.996;2022-09-02T10:59:41;2.20;;;0.60;;
65572;SDS011;52214;50.940;13.996;2022-09-02T11:02:16;2.27;;;0.70;;
65572;SDS011;52214;50.940;13.996;2022-09-02T11:04:53;2.58;;;0.70;;
65572;SDS011;52214;50.940;13.996;2022-09-02T11:07:29;2.47;;;0.60;;
65572;SDS011;52214;50.940;13.996;2022-09-02T11:10:16;2.78;;;0.70;;
65572;SDS011;52214;50.940;13.996;2022-09-02T11:12:53;2.22;;;0.68;;
65572;SDS011;52214;50.940;13.996;2022-09-02T11:16:06;1.90;;;0.60;;
65572;SDS011;52214;50.940;13.996;2022-09-02T11:18:45;2.80;;;0.70;;
65572;SDS011;52214;50.940;13.996;2022-09-02T11:29:26;2.20;;;0.70;;
65572;SDS011;52214;50.940;13.996;2022-09-02T11:32:21;2.42;;;0.90;;
65572;SDS011;52214;50.940;13.996;2022-09-02T11:34:54;2.03;;;0.65;;
65572;SDS011;52214;50.940;13.996;2022-09-02T11:37:25;2.38;;;0.77;;
65572;SDS011;52214;50.940;13.996;2022-09-02T11:40:05;2.20;;;0.70;;
65572;SDS011;52214;50.940;13.996;2022-09-02T11:42:42;2.20;;;0.73;;
65572;SDS011;52214;50.940;13.996;2022-09-02T11:50:59;2.05;;;0.55;;
65572;SDS011;52214;50.940;13.996;2022-09-02T11:53:47;2.33;;;0.70;;
65572;SDS011;52214;50.940;13.996;2022-09-02T11:56:15;1.83;;;0.57;;
65572;SDS011;52214;50.940;13.996;2022-09-02T11:58:45;2.78;;;0.70;;
65572;SDS011;52214;50.940;13.996;2022-09-02T12:03:56;1.67;;;0.60;;
65572;SDS011;52214;50.940;13.996;2022-09-02T12:06:25;2.10;;;0.57;;
65572;SDS011;52214;50.940;13.996;2022-09-02T12:11:37;2.17;;;0.70;;
65572;SDS011;52214;50.940;13.996;2022-09-02T12:17:05;3.53;;;0.60;;
65572;SDS011;52214;50.940;13.996;2022-09-02T12:24:53;2.10;;;0.60;;
65572;SDS011;52214;50.940;13.996;2022-09-02T12:27:53;2.35;;;0.70;;
65572;SDS011;52214;50.940;13.996;2022-09-02T12:30:14;1.90;;;0.60;;
65572;SDS011;52214;50.940;13.996;2022-09-02T12:33:28;3.17;;;0.68;;
65572;SDS011;52214;50.940;13.996;2022-09-02T12:35:55;2.73;;;0.73;;
65572;SDS011;52214;50.940;13.996;2022-09-02T12:38:26;2.22;;;0.70;;
65572;SDS011;52214;50.940;13.996;2022-09-02T12:49:20;2.60;;;0.90;;
65572;SDS011;52214;50.940;13.996;2022-09-02T12:52:01;2.70;;;0.77;;
65572;SDS011;52214;50.940;13.996;2022-09-02T12:54:45;3.22;;;0.80;;
65572;SDS011;52214;50.940;13.996;2022-09-02T12:57:16;2.78;;;0.90;;
65572;SDS011;52214;50.940;13.996;2022-09-02T12:59:44;3.53;;;0.82;;
65572;SDS011;52214;50.940;13.996;2022-09-02T13:05:04;3.80;;;0.70;;
65572;SDS011;52214;50.940;13.996;2022-09-02T13:13:35;2.85;;;0.80;;
65572;SDS011;52214;50.940;13.996;2022-09-02T13:19:21;2.65;;;0.80;;
65572;SDS011;52214;50.940;13.996;2022-09-02T13:22:13;2.70;;;0.80;;
65572;SDS011;52214;50.940;13.996;2022-09-02T13:33:20;2.78;;;0.73;;
65572;SDS011;52214;50.940;13.996;2022-09-02T13:36:04;2.30;;;0.70;;
65572;SDS011;52214;50.940;13.996;2022-09-02T13:38:49;2.50;;;0.70;;
65572;SDS011;52214;50.940;13.996;2022-09-02T13:41:33;3.40;;;0.65;;
65572;SDS011;52214;50.940;13.996;2022-09-02T13:47:11;2.90;;;0.80;;
65572;SDS011;52214;50.940;13.996;2022-09-02T13:49:45;3.78;;;0.80;;
65572;SDS011;52214;50.940;13.996;2022-09-02T13:52:13;3.75;;;0.80;;
65572;SDS011;52214;50.940;13.996;2022-09-02T13:54:45;2.20;;;0.80;;
65572;SDS011;52214;50.940;13.996;2022-09-02T13:57:16;2.57;;;0.87;;
65572;SDS011;52214;50.940;13.996;2022-09-02T13:59:47;3.10;;;0.90;;
65572;SDS011;52214;50.940;13.996;2022-09-02T14:02:30;2.72;;;0.82;;
65572;SDS011;52214;50.940;13.996;2022-09-02T14:04:57;3.28;;;0.75;;
65572;SDS011;52214;50.940;13.996;2022-09-02T14:07:30;3.38;;;0.75;;
65572;SDS011;52214;50.940;13.996;2022-09-02T14:10:02;2.80;;;0.90;;
65572;SDS011;52214;50.940;13.996;2022-09-02T14:12:32;2.38;;;0.80;;
65572;SDS011;52214;50.940;13.996;2022-09-02T14:15:00;2.40;;;0.80;;
65572;SDS011;52214;50.940;13.996;2022-09-02T14:17:27;2.75;;;0.90;;
65572;SDS011;52214;50.940;13.996;2022-09-02T14:22:56;2.80;;;0.80;;
65572;SDS011;52214;50.940;13.996;2022-09-02T14:25:23;2.50;;;0.88;;
65572;SDS011;52214;50.940;13.996;2022-09-02T14:27:54;2.70;;;1.08;;
65572;SDS011;52214;50.940;13.996;2022-09-02T14:30:28;2.28;;;0.80;;
65572;SDS011;52214;50.940;13.996;2022-09-02T14:33:22;3.03;;;0.90;;
65572;SDS011;52214;50.940;13.996;2022-09-02T14:41:17;2.70;;;1.08;;
65572;SDS011;52214;50.940;13.996;2022-09-02T14:43:49;2.40;;;0.82;;
65572;SDS011;52214;50.940;13.996;2022-09-02T14:46:28;2.50;;;0.83;;
65572;SDS011;52214;50.940;13.996;2022-09-02T14:48:59;2.38;;;0.88;;
65572;SDS011;52214;50.940;13.996;2022-09-02T14:51:31;2.75;;;0.93;;
65572;SDS011;52214;50.940;13.996;2022-09-02T14:54:12;2.92;;;0.80;;
65572;SDS011;52214;50.940;13.996;2022-09-02T14:57:06;3.83;;;1.08;;
65572;SDS011;52214;50.940;13.996;2022-09-02T14:59:46;2.80;;;0.90;;
65572;SDS011;52214;50.940;13.996;2022-09-02T15:02:22;3.13;;;0.80;;
65572;SDS011;52214;50.940;13.996;2022-09-02T15:04:54;2.80;;;0.80;;
65572;SDS011;52214;50.940;13.996;2022-09-02T15:07:21;2.10;;;0.70;;
65572;SDS011;52214;50.940;13.996;2022-09-02T15:09:47;4.13;;;0.80;;
65572;SDS011;52214;50.940;13.996;2022-09-02T15:12:15;2.57;;;0.97;;
65572;SDS011;52214;50.940;13.996;2022-09-02T15:14:43;2.42;;;0.70;;
65572;SDS011;52214;50.940;13.996;2022-09-02T15:17:10;2.30;;;0.70;;
65572;SDS011;52214;50.940;13.996;2022-09-02T15:19:38;3.72;;;0.90;;
65572;SDS011;52214;50.940;13.996;2022-09-02T15:22:04;2.47;;;0.80;;
65572;SDS011;52214;50.940;13.996;2022-09-02T15:24:29;3.47;;;0.90;;
65572;SDS011;52214;50.940;13.996;2022-09-02T15:26:55;4.07;;;0.85;;
65572;SDS011;52214;50.940;13.996;2022-09-02T15:29:20;2.40;;;0.70;;
65572;SDS011;52214;50.940;13.996;2022-09-02T15:31:50;3.10;;;0.77;;
65572;SDS011;52214;50.940;13.996;2022-09-02T15:34:16;4.10;;;0.90;;
65572;SDS011;52214;50.940;13.996;2022-09-02T15:36:42;3.20;;;0.90;;
65572;SDS011;52214;50.940;13.996;2022-09-02T15:39:08;2.83;;;0.75;;
65572;SDS011;52214;50.940;13.996;2022-09-02T15:41:33;3.03;;;0.93;;
65572;SDS011;52214;50.940;13.996;2022-09-02T15:44:00;2.50;;;0.70;;
65572;SDS011;52214;50.940;13.996;2022-09-02T15:46:30;2.63;;;0.90;;
65572;SDS011;52214;50.940;13.996;2022-09-02T15:49:00;3.13;;;0.90;;
65572;SDS011;52214;50.940;13.996;2022-09-02T15:51:26;2.53;;;0.88;;
65572;SDS011;52214;50.940;13.996;2022-09-02T15:53:53;2.60;;;0.90;;
65572;SDS011;52214;50.940;13.996;2022-09-02T15:56:21;2.50;;;0.80;;
65572;SDS011;52214;50.940;13.996;2022-09-02T15:59:01;2.63;;;0.70;;
65572;SDS011;52214;50.940;13.996;2022-09-02T16:01:30;2.88;;;1.00;;
65572;SDS011;52214;50.940;13.996;2022-09-02T16:03:56;3.13;;;1.00;;
65572;SDS011;52214;50.940;13.996;2022-09-02T16:06:22;3.75;;;1.00;;
65572;SDS011;52214;50.940;13.996;2022-09-02T16:08:48;2.60;;;0.80;;
65572;SDS011;52214;50.940;13.996;2022-09-02T16:11:14;2.80;;;0.90;;
65572;SDS011;52214;50.940;13.996;2022-09-02T16:13:40;2.63;;;0.80;;
65572;SDS011;52214;50.940;13.996;2022-09-02T16:16:07;2.90;;;0.95;;
65572;SDS011;52214;50.940;13.996;2022-09-02T16:18:35;3.13;;;1.00;;
65572;SDS011;52214;50.940;13.996;2022-09-02T16:21:01;3.87;;;1.07;;
65572;SDS011;52214;50.940;13.996;2022-09-02T16:23:28;3.03;;;0.80;;
65572;SDS011;52214;50.940;13.996;2022-09-02T16:28:55;2.83;;;0.98;;
65572;SDS011;52214;50.940;13.996;2022-09-02T16:31:26;3.57;;;0.90;;
65572;SDS011;52214;50.940;13.996;2022-09-02T16:33:57;4.78;;;0.70;;
65572;SDS011;52214;50.940;13.996;2022-09-02T16:36:25;3.10;;;1.13;;
65572;SDS011;52214;50.940;13.996;2022-09-02T16:38:52;5.85;;;0.90;;
65572;SDS011;52214;50.940;13.996;2022-09-02T16:41:21;2.77;;;0.87;;
65572;SDS011;52214;50.940;13.996;2022-09-02T16:43:56;3.00;;;1.00;;
65572;SDS011;52214;50.940;13.996;2022-09-02T16:46:24;3.15;;;0.90;;
65572;SDS011;52214;50.940;13.996;2022-09-02T16:48:50;4.55;;;0.80;;
65572;SDS011;52214;50.940;13.996;2022-09-02T16:51:16;2.60;;;0.90;;
65572;SDS011;52214;50.940;13.996;2022-09-02T16:53:43;3.00;;;0.82;;
65572;SDS011;52214;50.940;13.996;2022-09-02T16:56:12;3.10;;;0.90;;
65572;SDS011;52214;50.940;13.996;2022-09-02T16:58:39;4.38;;;0.90;;
65572;SDS011;52214;50.940;13.996;2022-09-02T17:01:05;2.42;;;0.70;;
65572;SDS011;52214;50.940;13.996;2022-09-02T17:03:36;2.77;;;0.90;;
65572;SDS011;52214;50.940;13.996;2022-09-02T17:06:02;3.67;;;0.90;;
65572;SDS011;52214;50.940;13.996;2022-09-02T17:08:28;2.60;;;0.85;;
65572;SDS011;52214;50.940;13.996;2022-09-02T17:13:38;4.35;;;0.90;;
65572;SDS011;52214;50.940;13.996;2022-09-02T17:16:05;2.70;;;0.88;;
65572;SDS011;52214;50.940;13.996;2022-09-02T17:18:31;4.60;;;1.08;;
65572;SDS011;52214;50.940;13.996;2022-09-02T17:21:16;4.28;;;0.90;;
65572;SDS011;52214;50.940;13.996;2022-09-02T17:23:45;4.05;;;1.02;;
65572;SDS011;52214;50.940;13.996;2022-09-02T17:26:11;2.70;;;0.80;;
65572;SDS011;52214;50.940;13.996;2022-09-02T17:28:39;2.90;;;0.95;;
65572;SDS011;52214;50.940;13.996;2022-09-02T17:31:17;3.88;;;1.17;;
65572;SDS011;52214;50.940;13.996;2022-09-02T17:33:44;2.53;;;0.90;;
65572;SDS011;52214;50.940;13.996;2022-09-02T17:36:11;3.03;;;1.10;;
65572;SDS011;52214;50.940;13.996;2022-09-02T17:38:37;4.07;;;1.10;;
65572;SDS011;52214;50.940;13.996;2022-09-02T17:41:02;3.80;;;1.48;;
65572;SDS011;52214;50.940;13.996;2022-09-02T17:43:46;3.72;;;1.20;;
65572;SDS011;52214;50.940;13.996;2022-09-02T17:46:11;3.30;;;1.30;;